createdAt,value
2023-02-23T00:01:21.840Z,11.55
2023-02-23T00:06:24.944Z,11.60
2023-02-23T00:11:27.377Z,11.70
2023-02-23T00:16:29.011Z,11.73
2023-02-23T00:21:32.794Z,11.70
2023-02-23T00:26:35.388Z,11.78
2023-02-23T00:31:38.468Z,11.80
2023-02-23T00:36:40.756Z,11.74
2023-02-23T00:41:42.458Z,11.75
2023-02-23T00:46:45.288Z,11.77
2023-02-23T00:51:46.906Z,11.88
2023-02-23T00:56:48.641Z,11.93
2023-02-23T01:01:50.050Z,11.97
2023-02-23T01:06:51.422Z,12.04
2023-02-23T01:11:52.811Z,12.08
2023-02-23T01:16:54.715Z,12.09
2023-02-23T01:21:56.036Z,12.12
2023-02-23T01:26:57.611Z,12.13
2023-02-23T01:31:59.025Z,12.14
2023-02-23T01:37:00.418Z,12.17
2023-02-23T01:42:01.731Z,12.16
2023-02-23T01:47:04.104Z,12.16
2023-02-23T01:52:11.175Z,12.15
2023-02-23T01:57:14.437Z,12.12
2023-02-23T02:02:23.015Z,12.03
2023-02-23T02:07:28.724Z,11.93
2023-02-23T02:12:30.534Z,11.77
2023-02-23T02:18:03.273Z,11.53
2023-02-23T02:23:32.579Z,11.30
2023-02-23T02:28:54.762Z,11.24
2023-02-23T02:34:29.547Z,11.07
2023-02-23T02:39:53.505Z,11.08
2023-02-23T02:45:12.609Z,11.06
2023-02-23T02:50:30.684Z,11.11
2023-02-23T02:55:35.163Z,11.07
2023-02-23T03:01:07.384Z,11.06
2023-02-23T03:06:27.518Z,11.07
2023-02-23T03:11:58.987Z,11.04
2023-02-23T03:17:55.505Z,11.04
2023-02-23T03:23:24.241Z,10.98
2023-02-23T03:28:52.180Z,10.93
2023-02-23T03:34:22.982Z,10.93
2023-02-23T03:39:51.249Z,10.96
2023-02-23T03:45:14.668Z,10.97
2023-02-23T03:50:45.358Z,10.93
2023-02-23T03:56:11.504Z,10.87
2023-02-23T04:01:34.341Z,10.85
2023-02-23T04:06:59.088Z,10.95
2023-02-23T04:12:28.004Z,11.01
2023-02-23T04:17:29.918Z,11.04
2023-02-23T04:22:31.741Z,11.06
2023-02-23T04:27:33.054Z,11.10
2023-02-23T04:32:34.491Z,11.15
2023-02-23T04:37:35.845Z,11.17
2023-02-23T04:42:39.664Z,11.21
2023-02-23T04:47:41.399Z,11.22
2023-02-23T04:52:43.291Z,11.20
2023-02-23T04:57:44.653Z,11.21
2023-02-23T05:02:46.047Z,11.23
2023-02-23T05:07:47.466Z,11.25
2023-02-23T05:12:48.923Z,11.29
2023-02-23T05:17:50.259Z,11.28
2023-02-23T05:22:51.580Z,11.31
2023-02-23T05:27:52.909Z,11.32
2023-02-23T05:32:54.219Z,11.32
2023-02-23T05:37:55.907Z,11.35
2023-02-23T05:43:00.441Z,11.30
2023-02-23T05:48:02.029Z,11.29
2023-02-23T05:53:04.193Z,11.23
2023-02-23T05:58:06.190Z,11.27
2023-02-23T06:03:07.520Z,11.30
2023-02-23T06:08:09.216Z,11.32
2023-02-23T06:13:11.082Z,11.31
2023-02-23T06:18:12.801Z,11.27
2023-02-23T06:23:15.592Z,11.29
2023-02-23T06:28:16.903Z,11.32
2023-02-23T06:33:18.573Z,11.37
2023-02-23T06:38:20.735Z,11.37
2023-02-23T06:43:23.350Z,11.43
2023-02-23T06:48:24.788Z,11.42
2023-02-23T06:53:26.173Z,11.49
2023-02-23T06:58:28.326Z,11.52
2023-02-23T07:03:29.642Z,11.46
2023-02-23T07:08:31.861Z,11.50
2023-02-23T07:13:33.236Z,11.52
2023-02-23T07:18:34.604Z,11.56
2023-02-23T07:23:35.963Z,11.58
2023-02-23T07:28:38.113Z,11.61
2023-02-23T07:33:39.641Z,11.66
2023-02-23T07:38:40.962Z,11.74
2023-02-23T07:43:42.285Z,11.71
2023-02-23T07:48:44.875Z,11.74
2023-02-23T07:53:46.232Z,11.82
2023-02-23T07:58:47.641Z,11.83
2023-02-23T08:03:50.285Z,11.89
2023-02-23T08:08:51.684Z,12.06
2023-02-23T08:13:53.976Z,12.12
2023-02-23T08:18:58.921Z,12.10
2023-02-23T08:24:00.401Z,12.10
2023-02-23T08:29:01.757Z,12.15
2023-02-23T08:34:03.109Z,12.23
2023-02-23T08:39:07.361Z,12.32
2023-02-23T08:44:08.884Z,12.35
2023-02-23T08:49:10.733Z,12.42
2023-02-23T08:54:14.768Z,12.48
2023-02-23T08:59:16.106Z,12.45
2023-02-23T09:04:18.287Z,12.48
2023-02-23T09:09:19.620Z,12.50
2023-02-23T09:14:21.096Z,12.57
2023-02-23T09:19:22.402Z,12.75
2023-02-23T09:24:23.725Z,12.88
2023-02-23T09:29:25.035Z,13.03
2023-02-23T09:34:29.272Z,13.12
2023-02-23T09:39:38.248Z,13.06
2023-02-23T09:44:49.113Z,12.99
2023-02-23T09:49:51.731Z,12.93
2023-02-23T09:54:53.604Z,12.85
2023-02-23T09:59:54.979Z,13.00
2023-02-23T10:05:02.810Z,13.14
2023-02-23T10:10:04.328Z,13.38
2023-02-23T10:15:23.739Z,13.44
2023-02-23T10:20:34.665Z,13.54
2023-02-23T10:25:41.548Z,13.66
2023-02-23T10:30:44.243Z,13.70
2023-02-23T10:35:46.031Z,13.90
2023-02-23T10:40:55.859Z,13.87
2023-02-23T10:45:57.800Z,13.89
2023-02-23T10:51:02.600Z,13.91
2023-02-23T10:56:16.858Z,14.07
2023-02-23T11:02:01.855Z,14.02
2023-02-23T11:07:18.105Z,14.05
2023-02-23T11:12:43.942Z,14.18
2023-02-23T11:17:45.362Z,14.04
2023-02-23T11:22:47.101Z,14.15
2023-02-23T11:27:51.457Z,14.31
2023-02-23T11:32:59.443Z,14.38
2023-02-23T11:38:15.389Z,14.38
2023-02-23T11:43:16.702Z,14.48
2023-02-23T11:48:34.291Z,14.70
2023-02-23T11:53:37.601Z,14.84
2023-02-23T11:59:08.252Z,14.76
2023-02-23T12:04:23.882Z,14.71
2023-02-23T12:09:32.592Z,14.65
2023-02-23T12:14:42.367Z,14.71
2023-02-23T12:19:51.236Z,14.78
2023-02-23T12:25:02.693Z,14.71
2023-02-23T12:30:10.166Z,14.68
2023-02-23T12:35:21.763Z,14.65
2023-02-23T12:40:30.506Z,14.60
2023-02-23T12:45:50.264Z,14.49
2023-02-23T12:50:54.728Z,14.40
2023-02-23T12:56:11.865Z,14.16
2023-02-23T13:01:36.306Z,13.91
2023-02-23T13:06:52.827Z,13.87
2023-02-23T13:12:13.409Z,13.87
2023-02-23T13:17:25.867Z,13.93
2023-02-23T13:22:40.895Z,13.85
2023-02-23T13:27:50.464Z,13.75
2023-02-23T13:32:52.375Z,13.85
2023-02-23T13:38:12.813Z,13.91
2023-02-23T13:43:23.216Z,13.99
2023-02-23T13:48:32.321Z,14.11
2023-02-23T13:53:59.755Z,14.27
2023-02-23T13:59:12.394Z,14.54
2023-02-23T14:04:23.130Z,14.60
2023-02-23T14:09:34.781Z,14.61
2023-02-23T14:14:36.956Z,14.71
2023-02-23T14:20:01.774Z,14.78
2023-02-23T14:25:34.405Z,14.78
2023-02-23T14:30:50.817Z,14.79
2023-02-23T14:35:54.313Z,14.92
2023-02-23T14:40:56.082Z,14.66
2023-02-23T14:45:58.897Z,14.65
2023-02-23T14:51:17.008Z,14.72
2023-02-23T14:56:28.089Z,14.82
2023-02-23T15:01:39.515Z,14.91
2023-02-23T15:06:42.534Z,14.97
2023-02-23T15:11:48.505Z,14.85
2023-02-23T15:16:50.340Z,14.74
2023-02-23T15:21:53.818Z,14.61
2023-02-23T15:26:56.498Z,14.60
2023-02-23T15:32:17.751Z,14.37
2023-02-23T15:37:35.272Z,14.14
2023-02-23T15:42:39.261Z,14.31
2023-02-23T15:47:40.839Z,14.20
2023-02-23T15:52:50.289Z,14.16
2023-02-23T15:57:58.822Z,14.16
2023-02-23T16:03:02.571Z,14.05
2023-02-23T16:08:06.577Z,14.03
2023-02-23T16:13:12.873Z,14.01
2023-02-23T16:18:27.484Z,13.95
2023-02-23T16:23:34.584Z,14.02
2023-02-23T16:28:41.246Z,14.09
2023-02-23T16:33:50.928Z,14.10
2023-02-23T16:38:52.786Z,14.18
2023-02-23T16:43:57.454Z,13.99
2023-02-23T16:49:12.945Z,13.89
2023-02-23T16:54:14.533Z,13.86
2023-02-23T16:59:18.458Z,13.73
2023-02-23T17:14:53.115Z,13.71
2023-02-23T17:19:54.483Z,13.65
2023-02-23T17:24:55.786Z,13.61
2023-02-23T17:29:57.150Z,13.42
2023-02-23T17:34:58.634Z,13.49
2023-02-23T17:40:00.030Z,13.59
2023-02-23T17:45:06.658Z,13.55
2023-02-23T17:50:08.685Z,13.41
2023-02-23T17:55:10.123Z,13.23
2023-02-23T18:00:13.084Z,13.14
2023-02-23T18:05:15.398Z,13.00
2023-02-23T18:10:17.318Z,13.04
2023-02-23T18:15:20.566Z,13.16
2023-02-23T18:20:21.929Z,13.20
2023-02-23T18:25:26.829Z,13.25
2023-02-23T18:30:28.161Z,13.23
2023-02-23T18:35:38.960Z,13.29
2023-02-23T18:40:40.368Z,13.32
2023-02-23T18:45:43.134Z,13.30
2023-02-23T18:50:44.482Z,13.26
2023-02-23T18:55:47.143Z,13.23
2023-02-23T19:00:48.561Z,13.21
2023-02-23T19:05:53.191Z,13.22
2023-02-23T19:10:54.578Z,13.26
2023-02-23T19:15:56.105Z,13.21
2023-02-23T19:20:57.614Z,13.02
2023-02-23T19:26:02.207Z,12.87
2023-02-23T19:31:06.166Z,12.64
2023-02-23T19:36:10.064Z,12.47
2023-02-23T19:41:14.949Z,12.48
2023-02-23T19:46:17.173Z,12.70
2023-02-23T19:51:19.793Z,12.82
2023-02-23T19:56:23.019Z,12.92
2023-02-23T20:01:27.415Z,12.85
2023-02-23T20:06:31.940Z,12.84
2023-02-23T20:11:33.498Z,12.81
2023-02-23T20:16:35.534Z,12.74
2023-02-23T20:21:37.193Z,12.60
2023-02-23T20:26:38.698Z,12.65
2023-02-23T20:31:51.375Z,12.60
2023-02-23T20:36:54.987Z,12.43
2023-02-23T20:41:56.453Z,12.32
2023-02-23T20:46:57.801Z,12.13
2023-02-23T20:51:59.148Z,12.20
2023-02-23T20:57:07.506Z,12.19
2023-02-23T21:02:13.626Z,12.20
2023-02-23T21:07:15.053Z,12.25
2023-02-23T21:12:16.417Z,12.31
2023-02-23T21:17:17.770Z,12.34
2023-02-23T21:22:19.127Z,12.35
2023-02-23T21:27:20.453Z,12.16
2023-02-23T21:32:22.819Z,12.14
2023-02-23T21:37:24.506Z,12.02
2023-02-23T21:42:26.537Z,12.11
2023-02-23T21:47:27.874Z,12.16
2023-02-23T21:52:31.234Z,12.10
2023-02-23T21:57:33.247Z,12.14
2023-02-23T22:02:38.234Z,12.15
2023-02-23T22:07:39.869Z,11.98
2023-02-23T22:12:41.323Z,12.03
2023-02-23T22:17:43.615Z,12.07
2023-02-23T22:22:45.526Z,12.14
2023-02-23T22:27:46.971Z,12.15
2023-02-23T22:32:48.665Z,12.01
2023-02-23T22:37:50.137Z,12.00
2023-02-23T22:42:51.491Z,11.96
2023-02-23T22:47:52.814Z,11.87
2023-02-23T22:52:54.155Z,11.55
2023-02-23T22:57:56.487Z,11.61
2023-02-23T23:02:57.874Z,11.69
2023-02-23T23:07:59.731Z,11.58
2023-02-23T23:13:03.053Z,11.52
2023-02-23T23:18:13.833Z,11.69
2023-02-23T23:23:17.073Z,11.79
2023-02-23T23:28:19.721Z,11.86
2023-02-23T23:33:21.034Z,11.87
2023-02-23T23:38:22.417Z,11.89
2023-02-23T23:43:25.235Z,11.94
2023-02-23T23:48:26.529Z,11.89
2023-02-23T23:53:27.837Z,11.88
2023-02-23T23:58:29.161Z,11.83
